createdAt,value
2018-10-11T00:00:25.016Z,25.93
2018-10-11T00:02:53.134Z,26.73
2018-10-11T00:05:21.219Z,27.00
2018-10-11T00:07:49.275Z,26.93
2018-10-11T00:10:17.369Z,27.67
2018-10-11T00:12:45.418Z,26.80
2018-10-11T00:15:13.489Z,27.60
2018-10-11T00:17:41.553Z,27.63
2018-10-11T00:20:09.690Z,27.87
2018-10-11T00:22:37.729Z,26.97
2018-10-11T00:25:05.809Z,27.70
2018-10-11T00:27:33.867Z,26.93
2018-10-11T00:30:01.957Z,27.47
2018-10-11T00:32:30.037Z,27.77
2018-10-11T00:34:58.103Z,28.20
2018-10-11T00:37:26.174Z,27.47
2018-10-11T00:39:54.227Z,26.37
2018-10-11T00:42:22.332Z,27.73
2018-10-11T00:44:50.431Z,27.83
2018-10-11T00:47:18.506Z,27.10
2018-10-11T00:49:46.580Z,27.03
2018-10-11T00:52:14.667Z,28.07
2018-10-11T00:54:42.740Z,26.57
2018-10-11T00:57:10.812Z,27.43
2018-10-11T00:59:38.866Z,28.20
2018-10-11T01:02:06.978Z,27.80
2018-10-11T01:04:35.037Z,27.60
2018-10-11T01:07:03.098Z,28.10
2018-10-11T01:09:31.356Z,26.93
2018-10-11T01:11:59.270Z,27.37
2018-10-11T01:14:27.351Z,27.17
2018-10-11T01:16:55.460Z,27.37
2018-10-11T01:19:23.535Z,27.67
2018-10-11T01:21:51.584Z,27.70
2018-10-11T01:24:19.631Z,28.43
2018-10-11T01:26:47.739Z,27.37
2018-10-11T01:29:15.835Z,27.93
2018-10-11T01:31:44.008Z,27.90
2018-10-11T01:34:12.120Z,27.07
2018-10-11T01:36:40.354Z,26.30
2018-10-11T01:39:08.442Z,27.27
2018-10-11T01:41:36.525Z,27.20
2018-10-11T01:44:04.596Z,27.10
2018-10-11T01:46:32.683Z,26.13
2018-10-11T01:49:00.756Z,27.20
2018-10-11T01:51:28.842Z,26.07
2018-10-11T01:53:56.928Z,27.77
2018-10-11T01:56:25.000Z,25.63
2018-10-11T01:58:53.059Z,27.03
2018-10-11T02:01:21.199Z,27.23
2018-10-11T02:03:49.281Z,26.17
2018-10-11T02:06:17.353Z,27.03
2018-10-11T02:08:45.420Z,28.30
2018-10-11T02:11:13.529Z,25.77
2018-10-11T02:13:41.601Z,26.83
2018-10-11T02:16:09.830Z,28.20
2018-10-11T02:18:37.907Z,27.03
2018-10-11T02:21:06.415Z,26.80
2018-10-11T02:23:34.864Z,27.33
2018-10-11T02:26:02.962Z,26.73
2018-10-11T02:28:31.109Z,27.97
2018-10-11T02:30:59.211Z,26.80
2018-10-11T02:33:27.302Z,27.63
2018-10-11T02:35:55.750Z,26.97
2018-10-11T02:38:23.876Z,26.97
2018-10-11T02:40:51.941Z,27.50
2018-10-11T02:43:20.010Z,26.90
2018-10-11T02:45:48.115Z,27.47
2018-10-11T02:48:16.191Z,27.23
2018-10-11T02:50:44.325Z,27.67
2018-10-11T02:53:12.506Z,28.33
2018-10-11T02:55:40.895Z,26.80
2018-10-11T02:58:20.565Z,27.40
2018-10-11T03:00:48.653Z,27.33
2018-10-11T03:03:19.638Z,27.87
2018-10-11T03:05:47.711Z,28.60
2018-10-11T03:08:16.184Z,28.33
2018-10-11T03:10:44.443Z,28.67
2018-10-11T03:13:13.743Z,27.97
2018-10-11T03:15:42.721Z,28.80
2018-10-11T03:18:11.423Z,27.23
2018-10-11T03:20:40.411Z,26.33
2018-10-11T03:23:09.044Z,26.73
2018-10-11T03:25:37.113Z,25.17
2018-10-11T03:28:05.224Z,25.63
2018-10-11T03:30:33.301Z,26.20
2018-10-11T03:33:01.425Z,26.07
2018-10-11T03:35:29.507Z,27.10
2018-10-11T03:37:57.992Z,25.47
2018-10-11T03:40:26.528Z,26.13
2018-10-11T03:42:54.821Z,25.43
2018-10-11T03:45:22.857Z,25.13
2018-10-11T03:47:51.015Z,25.53
2018-10-11T03:50:19.092Z,25.67
2018-10-11T03:52:47.225Z,25.43
2018-10-11T03:55:15.281Z,25.97
2018-10-11T03:57:43.399Z,26.07
2018-10-11T04:00:11.464Z,26.60
2018-10-11T04:02:39.698Z,25.47
2018-10-11T04:05:07.806Z,24.83
2018-10-11T04:07:35.970Z,25.43
2018-10-11T04:10:04.017Z,25.33
2018-10-11T04:12:32.105Z,26.00
2018-10-11T04:15:00.231Z,25.83
2018-10-11T04:17:28.451Z,25.87
2018-10-11T04:19:56.869Z,25.27
2018-10-11T04:22:25.036Z,25.67
2018-10-11T04:24:53.118Z,25.27
2018-10-11T04:27:21.272Z,26.80
2018-10-11T04:29:49.373Z,26.10
2018-10-11T04:32:17.458Z,26.27
2018-10-11T04:34:45.571Z,25.23
2018-10-11T04:37:13.704Z,25.57
2018-10-11T04:39:41.923Z,26.57
2018-10-11T04:42:10.602Z,26.23
2018-10-11T04:44:38.711Z,25.83
2018-10-11T04:47:07.465Z,27.10
2018-10-11T04:49:35.852Z,25.20
2018-10-11T04:52:04.003Z,25.47
2018-10-11T04:54:32.103Z,26.80
2018-10-11T04:57:00.192Z,26.20
2018-10-11T04:59:28.271Z,26.73
2018-10-11T05:01:56.360Z,26.57
2018-10-11T05:04:24.475Z,25.30
2018-10-11T05:06:52.548Z,25.43
2018-10-11T05:09:20.813Z,24.97
2018-10-11T05:11:48.897Z,25.40
2018-10-11T05:14:16.970Z,25.80
2018-10-11T05:16:45.089Z,25.47
2018-10-11T05:19:13.198Z,23.83
2018-10-11T05:21:41.412Z,24.20
2018-10-11T05:24:09.498Z,24.57
2018-10-11T05:26:37.578Z,23.23
2018-10-11T05:29:05.677Z,23.70
2018-10-11T05:31:33.828Z,24.30
2018-10-11T05:34:01.931Z,23.50
2018-10-11T05:36:30.206Z,22.07
2018-10-11T05:38:58.427Z,22.83
2018-10-11T05:41:26.628Z,22.83
2018-10-11T05:43:54.715Z,23.60
2018-10-11T05:46:31.473Z,23.87
2018-10-11T05:49:00.197Z,24.33
2018-10-11T05:51:29.118Z,24.07
2018-10-11T05:53:57.751Z,26.13
2018-10-11T05:56:28.471Z,22.90
2018-10-11T05:58:56.797Z,22.33
2018-10-11T06:01:25.262Z,22.27
2018-10-11T06:03:53.854Z,23.30
2018-10-11T06:06:21.913Z,22.47
2018-10-11T06:08:50.056Z,21.97
2018-10-11T06:11:18.202Z,22.30
2018-10-11T06:13:47.045Z,22.07
2018-10-11T06:16:15.317Z,21.93
2018-10-11T06:18:44.025Z,21.20
2018-10-11T06:21:12.284Z,20.10
2018-10-11T06:23:40.552Z,21.40
2018-10-11T06:26:08.623Z,21.50
2018-10-11T06:28:36.719Z,21.03
2018-10-11T06:31:04.788Z,21.97
2018-10-11T06:33:32.865Z,22.53
2018-10-11T06:36:00.950Z,21.33
2018-10-11T06:38:29.317Z,21.17
2018-10-11T06:40:58.143Z,21.30
2018-10-11T06:43:26.264Z,20.37
2018-10-11T06:45:54.348Z,20.90
2018-10-11T06:48:22.433Z,21.93
2018-10-11T06:50:50.605Z,21.07
2018-10-11T06:53:18.729Z,21.80
2018-10-11T06:55:46.845Z,21.43
2018-10-11T06:58:14.932Z,21.90
2018-10-11T07:00:43.024Z,22.30
2018-10-11T07:03:11.116Z,20.83
2018-10-11T07:05:39.206Z,19.97
2018-10-11T07:08:07.262Z,19.87
2018-10-11T07:10:35.334Z,20.77
2018-10-11T07:13:03.481Z,21.60
2018-10-11T07:15:31.568Z,21.23
2018-10-11T07:17:59.642Z,20.57
2018-10-11T07:20:27.734Z,20.10
2018-10-11T07:22:55.826Z,21.13
2018-10-11T07:25:23.923Z,19.73
2018-10-11T07:27:52.009Z,20.33
2018-10-11T07:30:20.116Z,21.63
2018-10-11T07:32:48.163Z,21.03
2018-10-11T07:35:16.313Z,20.60
2018-10-11T07:37:44.328Z,20.33
2018-10-11T07:40:12.475Z,20.30
2018-10-11T07:42:40.577Z,19.03
2018-10-11T07:45:08.675Z,18.57
2018-10-11T07:47:36.790Z,20.13
2018-10-11T07:50:05.325Z,19.23
2018-10-11T07:52:33.409Z,18.00
2018-10-11T07:55:01.489Z,19.53
2018-10-11T07:57:29.531Z,18.53
2018-10-11T07:59:57.660Z,18.33
2018-10-11T08:02:25.738Z,18.20
2018-10-11T08:04:53.845Z,18.07
2018-10-11T08:07:21.953Z,18.07
2018-10-11T08:09:50.029Z,17.27
2018-10-11T08:12:18.092Z,17.03
2018-10-11T08:14:46.169Z,17.00
2018-10-11T08:17:14.593Z,15.93
2018-10-11T08:19:42.433Z,16.57
2018-10-11T08:22:10.489Z,15.97
2018-10-11T08:24:38.577Z,16.03
2018-10-11T08:27:06.747Z,15.00
2018-10-11T08:29:34.791Z,15.43
2018-10-11T08:32:02.948Z,15.50
2018-10-11T08:34:31.028Z,14.50
2018-10-11T08:36:59.108Z,15.17
2018-10-11T08:39:27.238Z,14.97
2018-10-11T08:41:55.317Z,15.47
2018-10-11T08:44:23.386Z,15.40
2018-10-11T08:46:51.540Z,14.97
2018-10-11T08:49:19.656Z,14.73
2018-10-11T08:51:47.690Z,15.40
2018-10-11T08:54:50.775Z,14.83
2018-10-11T08:57:19.672Z,15.57
2018-10-11T08:59:47.833Z,15.10
2018-10-11T09:02:15.960Z,15.17
2018-10-11T09:04:44.397Z,15.20
2018-10-11T09:07:12.519Z,15.37
2018-10-11T09:09:40.690Z,14.57
2018-10-11T09:12:08.716Z,15.13
2018-10-11T09:14:43.360Z,15.07
2018-10-11T09:17:11.496Z,15.00
2018-10-11T09:19:39.576Z,16.80
2018-10-11T09:22:07.664Z,15.83
2018-10-11T09:24:35.755Z,16.50
2018-10-11T09:27:03.888Z,14.70
2018-10-11T09:29:32.092Z,15.17
2018-10-11T09:32:00.220Z,14.83
2018-10-11T09:34:28.327Z,14.60
2018-10-11T09:36:56.423Z,14.63
2018-10-11T09:39:24.532Z,14.87
2018-10-11T09:41:52.601Z,15.67
2018-10-11T09:44:20.704Z,15.07
2018-10-11T09:46:48.805Z,14.00
2018-10-11T09:49:16.909Z,14.57
2018-10-11T09:51:44.998Z,13.57
2018-10-11T09:54:13.069Z,13.70
2018-10-11T09:57:50.130Z,14.03
2018-10-11T10:00:23.753Z,13.43
2018-10-11T10:02:52.185Z,13.43
2018-10-11T10:05:20.199Z,14.63
2018-10-11T10:07:48.475Z,13.87
2018-10-11T10:10:16.573Z,13.27
2018-10-11T10:12:44.757Z,13.73
2018-10-11T10:15:12.822Z,12.73
2018-10-11T10:17:40.900Z,12.73
2018-10-11T10:20:08.995Z,13.20
2018-10-11T10:22:37.079Z,13.07
2018-10-11T10:25:05.159Z,12.70
2018-10-11T10:27:33.357Z,13.00
2018-10-11T10:30:05.613Z,13.17
2018-10-11T10:32:33.716Z,12.80
2018-10-11T10:35:01.776Z,13.23
2018-10-11T10:37:29.886Z,12.83
2018-10-11T10:39:58.007Z,13.40
2018-10-11T10:42:26.093Z,12.90
2018-10-11T10:44:54.246Z,12.60
2018-10-11T10:47:22.354Z,12.30
2018-10-11T10:49:57.165Z,12.57
2018-10-11T10:52:25.249Z,13.33
2018-10-11T10:54:53.338Z,12.57
2018-10-11T10:57:21.400Z,12.53
2018-10-11T10:59:49.503Z,12.33
2018-10-11T11:02:17.596Z,12.50
2018-10-11T11:04:45.692Z,13.03
2018-10-11T11:07:13.860Z,12.63
2018-10-11T11:09:41.938Z,13.00
2018-10-11T11:12:10.046Z,12.83
2018-10-11T11:14:38.131Z,12.37
2018-10-11T11:17:06.223Z,12.37
2018-10-11T11:19:34.300Z,11.67
2018-10-11T11:22:02.407Z,11.90
2018-10-11T11:24:30.472Z,12.83
2018-10-11T11:26:58.548Z,12.03
2018-10-11T11:29:26.674Z,11.67
2018-10-11T11:31:54.884Z,12.00
2018-10-11T11:34:22.972Z,11.83
2018-10-11T11:36:51.062Z,11.90
2018-10-11T11:39:19.196Z,12.10
2018-10-11T11:41:47.293Z,12.23
2018-10-11T11:44:15.410Z,12.23
2018-10-11T11:46:43.476Z,13.10
2018-10-11T11:49:11.596Z,12.67
2018-10-11T11:51:39.697Z,13.10
2018-10-11T11:54:13.250Z,11.87
2018-10-11T11:56:41.311Z,11.23
2018-10-11T11:59:09.475Z,11.70
2018-10-11T12:01:37.669Z,11.03
2018-10-11T12:04:05.754Z,12.33
2018-10-11T12:06:33.821Z,11.27
2018-10-11T12:09:01.932Z,10.90
2018-10-11T12:11:30.022Z,11.20
2018-10-11T12:13:58.112Z,12.47
2018-10-11T12:16:26.222Z,11.87
2018-10-11T12:18:55.189Z,12.57
2018-10-11T12:21:23.245Z,11.40
2018-10-11T12:23:51.362Z,11.97
2018-10-11T12:26:19.485Z,11.87
2018-10-11T12:28:47.588Z,11.57
2018-10-11T12:31:15.628Z,12.10
2018-10-11T12:33:43.773Z,12.03
2018-10-11T12:36:11.879Z,12.00
2018-10-11T12:38:40.012Z,11.23
2018-10-11T12:41:08.080Z,11.60
2018-10-11T12:43:36.215Z,11.63
2018-10-11T12:46:04.285Z,11.73
2018-10-11T12:48:32.439Z,11.47
2018-10-11T12:51:00.793Z,11.63
2018-10-11T12:53:28.884Z,11.00
2018-10-11T12:55:56.969Z,11.90
2018-10-11T12:58:25.067Z,11.50
2018-10-11T13:00:53.212Z,11.63
2018-10-11T13:03:21.383Z,11.70
2018-10-11T13:05:49.435Z,12.37
2018-10-11T13:08:17.532Z,11.50
2018-10-11T13:10:45.621Z,11.57
2018-10-11T13:13:13.723Z,11.47
2018-10-11T13:15:42.278Z,10.87
2018-10-11T13:18:09.991Z,10.80
2018-10-11T13:20:38.069Z,11.23
2018-10-11T13:23:09.775Z,10.80
2018-10-11T13:25:34.302Z,11.07
2018-10-11T13:28:02.371Z,10.90
2018-10-11T13:30:30.480Z,10.80
2018-10-11T13:32:58.622Z,10.90
2018-10-11T13:35:26.722Z,11.53
2018-10-11T13:37:54.776Z,10.60
2018-10-11T13:40:22.891Z,11.17
2018-10-11T13:42:50.949Z,11.00
2018-10-11T13:45:19.039Z,11.10
2018-10-11T13:47:47.188Z,10.87
2018-10-11T13:50:15.321Z,18.10
2018-10-11T13:52:43.434Z,10.30
2018-10-11T13:55:14.189Z,10.50
2018-10-11T13:57:39.619Z,11.23
2018-10-11T14:00:08.251Z,10.47
2018-10-11T14:02:36.392Z,10.60
2018-10-11T14:05:04.753Z,11.47
2018-10-11T14:07:32.825Z,10.03
2018-10-11T14:10:02.000Z,10.97
2018-10-11T14:12:30.097Z,10.10
2018-10-11T14:14:58.211Z,10.93
2018-10-11T14:17:26.274Z,10.40
2018-10-11T14:19:54.378Z,12.07
2018-10-11T14:22:22.434Z,10.63
2018-10-11T14:24:50.552Z,10.17
2018-10-11T14:27:18.621Z,10.30
2018-10-11T14:29:46.740Z,10.00
2018-10-11T14:32:14.813Z,10.53
2018-10-11T14:34:42.917Z,9.97
2018-10-11T14:37:11.167Z,10.03
2018-10-11T14:39:39.184Z,10.53
2018-10-11T14:42:07.737Z,10.60
2018-10-11T14:44:35.736Z,9.40
2018-10-11T14:47:03.896Z,10.17
2018-10-11T14:49:31.969Z,9.43
2018-10-11T14:52:00.106Z,9.83
2018-10-11T14:54:30.860Z,11.07
2018-10-11T14:56:59.012Z,10.90
2018-10-11T14:59:27.266Z,10.83
2018-10-11T15:01:55.343Z,9.57
2018-10-11T15:04:23.431Z,10.37
2018-10-11T15:06:51.648Z,10.03
2018-10-11T15:09:19.705Z,10.37
2018-10-11T15:11:47.788Z,10.30
2018-10-11T15:14:15.859Z,10.10
2018-10-11T15:16:43.936Z,11.00
2018-10-11T15:19:11.995Z,10.00
2018-10-11T15:21:40.068Z,10.20
2018-10-11T15:24:08.164Z,10.03
2018-10-11T15:26:36.265Z,10.60
2018-10-11T15:29:04.342Z,10.10
2018-10-11T15:31:32.452Z,10.20
2018-10-11T15:34:00.690Z,9.70
2018-10-11T15:36:28.804Z,9.17
2018-10-11T15:38:56.913Z,10.37
2018-10-11T15:41:25.008Z,9.50
2018-10-11T15:43:53.093Z,10.10
2018-10-11T15:46:21.194Z,9.20
2018-10-11T15:48:49.268Z,10.20
2018-10-11T15:51:17.358Z,10.23
2018-10-11T15:53:45.416Z,9.33
2018-10-11T15:56:13.519Z,10.20
2018-10-11T15:58:41.605Z,10.13
2018-10-11T16:01:10.043Z,10.27
2018-10-11T16:03:38.113Z,10.00
2018-10-11T16:06:06.214Z,10.10
2018-10-11T16:08:34.396Z,10.20
2018-10-11T16:11:02.513Z,10.07
2018-10-11T16:13:30.600Z,9.90
2018-10-11T16:15:58.681Z,9.93
2018-10-11T16:18:26.769Z,10.50
2018-10-11T16:20:54.987Z,10.20
2018-10-11T16:23:23.079Z,10.37
2018-10-11T16:25:51.214Z,10.03
2018-10-11T16:28:19.303Z,10.33
2018-10-11T16:30:47.415Z,11.33
2018-10-11T16:33:15.548Z,10.60
2018-10-11T16:35:43.670Z,10.67
2018-10-11T16:38:11.758Z,10.57
2018-10-11T16:40:40.355Z,12.90
2018-10-11T16:43:08.437Z,12.93
2018-10-11T16:45:36.563Z,11.83
2018-10-11T16:48:04.701Z,12.23
2018-10-11T16:50:33.050Z,12.57
2018-10-11T16:53:01.614Z,11.77
2018-10-11T16:55:29.743Z,12.27
2018-10-11T16:57:57.932Z,12.00
2018-10-11T17:00:26.180Z,12.27
2018-10-11T17:02:54.546Z,12.67
2018-10-11T17:05:22.660Z,12.07
2018-10-11T17:07:50.815Z,12.17
2018-10-11T17:10:20.012Z,11.07
2018-10-11T17:12:48.101Z,12.40
2018-10-11T17:15:16.189Z,12.20
2018-10-11T17:17:44.307Z,12.20
2018-10-11T17:20:12.393Z,11.87
2018-10-11T17:22:40.480Z,12.27
2018-10-11T17:25:08.563Z,12.67
2018-10-11T17:27:36.668Z,12.47
2018-10-11T17:30:04.789Z,12.80
2018-10-11T17:32:32.913Z,12.53
2018-10-11T17:35:01.069Z,13.33
2018-10-11T17:37:32.074Z,12.70
2018-10-11T17:40:00.183Z,12.57
2018-10-11T17:42:28.332Z,12.77
2018-10-11T17:44:56.415Z,13.33
2018-10-11T17:47:26.986Z,12.17
2018-10-11T17:49:55.085Z,13.30
2018-10-11T17:52:23.285Z,12.97
2018-10-11T17:58:27.566Z,12.43
2018-10-11T18:00:55.699Z,13.83
2018-10-11T18:03:23.893Z,12.90
2018-10-11T18:05:52.007Z,13.30
2018-10-11T18:08:20.118Z,12.73
2018-10-11T18:10:48.600Z,12.47
2018-10-11T18:13:16.736Z,12.80
2018-10-11T18:15:44.938Z,12.70
2018-10-11T18:18:13.424Z,12.67
2018-10-11T18:20:41.549Z,13.67
2018-10-11T18:23:09.839Z,12.60
2018-10-11T18:25:37.969Z,13.10
2018-10-11T18:28:06.159Z,12.77
2018-10-11T18:30:34.306Z,12.53
2018-10-11T18:33:02.413Z,12.07
2018-10-11T18:35:30.641Z,12.63
2018-10-11T18:37:58.896Z,12.57
2018-10-11T18:40:27.129Z,13.07
2018-10-11T18:42:55.251Z,12.20
2018-10-11T18:45:23.355Z,12.37
2018-10-11T18:47:51.594Z,12.47
2018-10-11T18:50:19.673Z,13.20
2018-10-11T18:52:47.901Z,12.37
2018-10-11T18:55:16.054Z,12.70
2018-10-11T18:57:44.240Z,12.47
2018-10-11T19:00:12.568Z,13.13
2018-10-11T19:02:40.698Z,12.13
2018-10-11T19:05:08.820Z,13.07
2018-10-11T19:07:36.916Z,12.33
2018-10-11T19:10:05.050Z,12.07
2018-10-11T19:12:33.329Z,12.57
2018-10-11T19:15:01.481Z,12.13
2018-10-11T19:17:29.884Z,12.60
2018-10-11T19:19:57.990Z,12.77
2018-10-11T19:22:26.171Z,12.60
2018-10-11T19:24:54.446Z,12.00
2018-10-11T19:27:22.544Z,12.13
2018-10-11T19:29:50.709Z,12.73
2018-10-11T19:32:18.848Z,12.53
2018-10-11T19:34:46.953Z,12.60
2018-10-11T19:37:15.106Z,12.47
2018-10-11T19:39:43.223Z,12.50
2018-10-11T19:42:11.318Z,12.27
2018-10-11T19:44:39.685Z,12.00
2018-10-11T19:47:07.797Z,12.13
2018-10-11T19:49:35.947Z,12.10
2018-10-11T19:52:04.136Z,11.83
2018-10-11T19:54:32.265Z,13.13
2018-10-11T19:57:00.354Z,11.90
2018-10-11T19:59:28.475Z,11.27
2018-10-11T20:01:56.769Z,12.60
2018-10-11T20:04:24.914Z,12.23
2018-10-11T20:06:52.991Z,12.20
2018-10-11T20:09:21.110Z,12.40
2018-10-11T20:11:49.264Z,13.30
2018-10-11T20:14:17.411Z,13.17
2018-10-11T20:16:45.689Z,12.80
2018-10-11T20:19:13.785Z,12.80
2018-10-11T20:21:41.877Z,16.60
2018-10-11T20:24:10.048Z,14.83
2018-10-11T20:26:38.106Z,14.57
2018-10-11T20:29:06.353Z,16.67
2018-10-11T20:31:34.450Z,12.07
2018-10-11T20:34:02.573Z,13.97
2018-10-11T20:36:30.771Z,14.60
2018-10-11T20:38:58.870Z,12.77
2018-10-11T20:41:27.021Z,13.40
2018-10-11T20:43:55.166Z,15.17
2018-10-11T20:46:23.215Z,14.87
2018-10-11T20:48:51.315Z,12.53
2018-10-11T20:51:19.575Z,12.27
2018-10-11T20:53:47.664Z,12.23
2018-10-11T20:56:15.817Z,12.17
2018-10-11T20:58:43.946Z,11.60
2018-10-11T21:01:12.032Z,11.63
2018-10-11T21:03:40.117Z,15.37
2018-10-11T21:06:08.203Z,11.67
2018-10-11T21:08:36.402Z,12.13
2018-10-11T21:11:04.607Z,11.73
2018-10-11T21:13:32.689Z,11.93
2018-10-11T21:16:00.792Z,12.13
2018-10-11T21:18:28.988Z,11.23
2018-10-11T21:20:57.084Z,12.00
2018-10-11T21:23:25.188Z,11.93
2018-10-11T21:25:53.365Z,11.30
2018-10-11T21:28:21.546Z,11.00
2018-10-11T21:30:49.742Z,10.87
2018-10-11T21:33:18.097Z,11.87
2018-10-11T21:35:46.221Z,10.90
2018-10-11T21:38:14.457Z,11.03
2018-10-11T21:40:42.805Z,11.90
2018-10-11T21:43:11.097Z,11.23
2018-10-11T21:45:39.258Z,10.90
2018-10-11T21:48:07.339Z,11.10
2018-10-11T21:50:35.447Z,11.63
2018-10-11T21:53:03.570Z,10.27
2018-10-11T21:55:32.719Z,11.27
2018-10-11T21:58:00.779Z,10.70
2018-10-11T22:00:34.336Z,11.07
2018-10-11T22:03:02.434Z,10.90
2018-10-11T22:05:30.548Z,10.57
2018-10-11T22:07:58.656Z,11.67
2018-10-11T22:10:26.831Z,11.20
2018-10-11T22:12:55.101Z,10.90
2018-10-11T22:15:23.447Z,11.27
2018-10-11T22:17:51.536Z,10.90
2018-10-11T22:20:19.645Z,11.17
2018-10-11T22:22:47.748Z,10.47
2018-10-11T22:25:15.840Z,11.03
2018-10-11T22:27:43.912Z,11.10
2018-10-11T22:30:12.025Z,10.43
2018-10-11T22:32:40.105Z,10.43
2018-10-11T22:35:08.337Z,10.70
2018-10-11T22:37:36.486Z,10.87
2018-10-11T22:40:04.618Z,10.43
2018-10-11T22:42:32.682Z,11.23
2018-10-11T22:45:00.755Z,10.90
2018-10-11T22:47:28.845Z,11.07
2018-10-11T22:49:56.910Z,10.50
2018-10-11T22:52:25.021Z,11.23
2018-10-11T22:54:53.246Z,10.60
2018-10-11T22:57:21.288Z,11.73
2018-10-11T22:59:49.407Z,11.10
2018-10-11T23:02:17.532Z,10.80
2018-10-11T23:04:45.595Z,10.97
2018-10-11T23:07:13.724Z,10.97
2018-10-11T23:09:41.827Z,10.93
2018-10-11T23:12:09.916Z,11.53
2018-10-11T23:14:38.233Z,11.40
2018-10-11T23:17:06.381Z,11.57
2018-10-11T23:19:34.549Z,11.23
2018-10-11T23:22:02.624Z,10.20
2018-10-11T23:24:30.725Z,10.97
2018-10-11T23:26:58.823Z,11.57
2018-10-11T23:29:26.944Z,10.77
2018-10-11T23:31:55.053Z,11.97
2018-10-11T23:34:23.141Z,11.70
2018-10-11T23:36:51.253Z,11.43
2018-10-11T23:39:19.378Z,11.13
2018-10-11T23:41:47.477Z,11.03
2018-10-11T23:44:15.596Z,11.47
2018-10-11T23:46:43.746Z,11.33
2018-10-11T23:49:11.818Z,10.70
2018-10-11T23:51:40.082Z,12.00
2018-10-11T23:54:08.515Z,11.60
2018-10-11T23:56:36.604Z,11.93
2018-10-11T23:59:04.718Z,11.50
